createdAt,value
2022-11-01T00:01:37.017Z,5.33
2022-11-01T00:04:09.557Z,5.00
2022-11-01T00:06:42.071Z,4.47
2022-11-01T00:09:14.580Z,5.55
2022-11-01T00:11:48.039Z,7.75
2022-11-01T00:14:21.095Z,8.60
2022-11-01T00:16:53.633Z,4.47
2022-11-01T00:19:26.517Z,4.10
2022-11-01T00:22:00.264Z,6.37
2022-11-01T00:24:32.981Z,4.65
2022-11-01T00:27:06.030Z,7.87
2022-11-01T00:29:39.043Z,8.00
2022-11-01T00:32:11.611Z,4.75
2022-11-01T00:34:44.841Z,5.20
2022-11-01T00:37:18.157Z,8.00
2022-11-01T00:39:50.727Z,5.45
2022-11-01T00:42:23.349Z,6.85
2022-11-01T00:44:56.031Z,4.20
2022-11-01T00:47:28.631Z,5.92
2022-11-01T00:50:01.109Z,6.90
2022-11-01T00:52:33.789Z,6.83
2022-11-01T00:55:07.005Z,8.03
2022-11-01T00:57:39.446Z,6.75
2022-11-01T01:00:13.392Z,7.42
2022-11-01T01:02:46.864Z,5.97
2022-11-01T01:05:20.241Z,4.70
2022-11-01T01:07:52.945Z,5.92
2022-11-01T01:10:25.898Z,8.75
2022-11-01T01:12:58.339Z,9.40
2022-11-01T01:15:31.275Z,5.00
2022-11-01T01:18:04.174Z,6.03
2022-11-01T01:20:37.241Z,5.15
2022-11-01T01:23:10.970Z,4.17
2022-11-01T01:25:44.781Z,5.73
2022-11-01T01:28:17.567Z,6.03
2022-11-01T01:30:50.231Z,6.45
2022-11-01T01:33:23.359Z,6.03
2022-11-01T01:35:56.041Z,6.42
2022-11-01T01:38:28.459Z,7.17
2022-11-01T01:41:02.471Z,4.47
2022-11-01T01:43:44.114Z,5.08
2022-11-01T01:46:16.575Z,5.75
2022-11-01T01:48:53.666Z,6.22
2022-11-01T01:51:27.223Z,6.75
2022-11-01T01:53:59.668Z,8.73
2022-11-01T01:56:37.821Z,6.65
2022-11-01T01:59:11.525Z,7.20
2022-11-01T02:01:44.188Z,6.45
2022-11-01T02:04:30.810Z,6.83
2022-11-01T02:07:03.282Z,5.60
2022-11-01T02:09:36.004Z,8.88
2022-11-01T02:12:08.551Z,4.42
2022-11-01T02:14:42.492Z,7.10
2022-11-01T02:17:41.159Z,4.20
2022-11-01T02:20:40.037Z,5.37
2022-11-01T02:23:33.202Z,4.83
2022-11-01T02:26:27.165Z,5.08
2022-11-01T02:29:19.031Z,5.62
2022-11-01T02:32:24.507Z,6.72
2022-11-01T02:35:20.002Z,5.55
2022-11-01T02:38:17.329Z,5.60
2022-11-01T02:41:19.955Z,5.90
2022-11-01T02:44:03.239Z,6.25
2022-11-01T02:46:57.428Z,6.78
2022-11-01T02:49:40.865Z,4.17
2022-11-01T02:52:23.860Z,5.08
2022-11-01T02:55:01.722Z,6.17
2022-11-01T02:57:43.718Z,7.28
2022-11-01T03:00:50.295Z,6.00
2022-11-01T03:03:35.258Z,6.50
2022-11-01T03:06:15.501Z,5.90
2022-11-01T03:08:52.631Z,5.62
2022-11-01T03:11:30.681Z,4.35
2022-11-01T03:14:29.539Z,6.83
2022-11-01T03:17:06.392Z,5.35
2022-11-01T03:19:55.349Z,5.85
2022-11-01T03:22:46.200Z,6.15
2022-11-01T03:25:43.331Z,7.33
2022-11-01T03:28:26.128Z,8.58
2022-11-01T03:31:05.735Z,6.22
2022-11-01T03:33:43.562Z,6.08
2022-11-01T03:36:20.765Z,8.13
2022-11-01T03:39:06.537Z,4.83
2022-11-01T03:41:43.925Z,5.37
2022-11-01T03:44:16.569Z,7.55
2022-11-01T03:46:49.038Z,4.90
2022-11-01T03:49:21.571Z,6.22
2022-11-01T03:51:53.986Z,6.30
2022-11-01T03:54:27.501Z,7.22
2022-11-01T03:57:00.363Z,8.43
2022-11-01T03:59:33.109Z,5.30
2022-11-01T04:02:05.870Z,7.62
2022-11-01T04:04:38.536Z,5.65
2022-11-01T04:07:11.179Z,8.40
2022-11-01T04:09:44.396Z,6.22
2022-11-01T04:12:17.583Z,11.03
2022-11-01T04:15:08.575Z,7.72
2022-11-01T04:17:58.764Z,5.90
2022-11-01T04:20:34.313Z,8.40
2022-11-01T04:23:08.253Z,8.48
2022-11-01T04:25:40.967Z,7.15
2022-11-01T04:28:13.843Z,7.15
2022-11-01T04:30:46.893Z,7.17
2022-11-01T04:33:19.465Z,5.72
2022-11-01T04:35:51.991Z,6.65
2022-11-01T04:38:24.778Z,6.58
2022-11-01T04:40:57.496Z,9.53
2022-11-01T04:43:30.280Z,6.22
2022-11-01T04:46:03.706Z,6.47
2022-11-01T04:48:37.959Z,12.60
2022-11-01T04:51:10.864Z,6.28
2022-11-01T04:53:43.267Z,7.60
2022-11-01T04:56:16.075Z,8.13
2022-11-01T04:58:48.497Z,7.85
2022-11-01T05:01:21.425Z,6.72
2022-11-01T05:03:55.957Z,11.43
2022-11-01T05:09:02.600Z,7.72
2022-11-01T05:11:36.044Z,11.00
2022-11-01T05:14:08.449Z,8.80
2022-11-01T05:16:40.976Z,8.68
2022-11-01T05:19:13.916Z,10.68
2022-11-01T05:21:47.186Z,10.90
2022-11-01T05:24:19.981Z,9.35
2022-11-01T05:26:52.442Z,9.55
2022-11-01T05:29:32.797Z,11.15
2022-11-01T05:31:59.685Z,7.03
2022-11-01T05:34:32.559Z,6.35
2022-11-01T05:37:04.905Z,10.32
2022-11-01T05:39:37.497Z,9.73
2022-11-01T05:42:10.385Z,9.40
2022-11-01T05:44:43.416Z,10.18
2022-11-01T05:47:17.448Z,9.03
2022-11-01T05:49:51.368Z,10.18
2022-11-01T05:52:23.805Z,7.97
2022-11-01T05:54:57.052Z,10.78
2022-11-01T05:57:33.218Z,11.60
2022-11-01T06:00:06.464Z,8.30
2022-11-01T06:02:45.182Z,9.55
2022-11-01T06:05:17.866Z,9.43
2022-11-01T06:07:50.695Z,8.75
2022-11-01T06:10:23.022Z,8.35
2022-11-01T06:12:56.676Z,9.78
2022-11-01T06:15:29.312Z,7.78
2022-11-01T06:18:02.501Z,6.60
2022-11-01T06:20:36.974Z,9.75
2022-11-01T06:23:11.966Z,10.55
2022-11-01T06:25:45.058Z,7.80
2022-11-01T06:28:18.023Z,6.35
2022-11-01T06:30:50.840Z,6.80
2022-11-01T06:33:24.407Z,9.98
2022-11-01T06:35:57.154Z,9.90
2022-11-01T06:38:29.784Z,9.88
2022-11-01T06:41:02.606Z,10.28
2022-11-01T06:43:35.081Z,9.28
2022-11-01T06:46:08.167Z,9.15
2022-11-01T06:48:41.065Z,7.20
2022-11-01T06:51:14.059Z,11.45
2022-11-01T06:53:47.127Z,8.40
2022-11-01T06:56:19.918Z,12.35
2022-11-01T06:58:52.661Z,10.10
2022-11-01T07:01:26.908Z,7.95
2022-11-01T07:04:00.436Z,8.75
2022-11-01T07:06:33.492Z,9.48
2022-11-01T07:09:06.656Z,9.43
2022-11-01T07:11:39.701Z,7.22
2022-11-01T07:14:12.322Z,9.40
2022-11-01T07:16:45.011Z,10.72
2022-11-01T07:21:58.178Z,10.15
2022-11-01T07:24:31.366Z,6.53
2022-11-01T07:27:03.762Z,9.55
2022-11-01T07:29:39.590Z,6.97
2022-11-01T07:32:11.960Z,12.13
2022-11-01T07:34:45.192Z,8.15
2022-11-01T07:37:17.572Z,8.95
2022-11-01T07:39:50.304Z,12.05
2022-11-01T07:42:22.881Z,8.13
2022-11-01T07:44:55.524Z,8.13
2022-11-01T07:47:28.019Z,8.90
2022-11-01T07:50:00.638Z,9.63
2022-11-01T07:52:33.265Z,9.60
2022-11-01T07:55:07.334Z,8.43
2022-11-01T07:57:41.700Z,6.17
2022-11-01T08:00:15.649Z,5.90
2022-11-01T08:02:48.180Z,4.95
2022-11-01T08:05:22.464Z,9.03
2022-11-01T08:07:55.888Z,5.85
2022-11-01T08:10:30.172Z,7.42
2022-11-01T08:13:23.586Z,6.25
2022-11-01T08:15:57.823Z,7.95
2022-11-01T08:18:30.233Z,5.20
2022-11-01T08:21:03.243Z,5.30
2022-11-01T08:23:36.652Z,6.43
2022-11-01T08:26:09.829Z,6.00
2022-11-01T08:28:43.093Z,6.67
2022-11-01T08:31:15.677Z,5.65
2022-11-01T08:33:49.400Z,5.83
2022-11-01T08:36:22.563Z,7.15
2022-11-01T08:38:55.165Z,5.27
2022-11-01T08:41:29.469Z,4.40
2022-11-01T08:44:01.950Z,6.72
2022-11-01T08:46:34.441Z,5.67
2022-11-01T08:49:07.257Z,4.90
2022-11-01T08:51:40.232Z,3.98
2022-11-01T08:54:12.991Z,5.90
2022-11-01T08:56:45.865Z,3.67
2022-11-01T08:59:18.682Z,4.72
2022-11-01T09:01:54.135Z,6.50
2022-11-01T09:04:26.810Z,8.28
2022-11-01T09:06:59.639Z,4.33
2022-11-01T09:09:32.884Z,6.33
2022-11-01T09:12:10.853Z,6.45
2022-11-01T09:14:49.256Z,5.00
2022-11-01T09:17:22.060Z,7.58
2022-11-01T09:19:54.523Z,3.47
2022-11-01T09:22:26.817Z,3.70
2022-11-01T09:24:59.286Z,4.78
2022-11-01T09:27:31.839Z,4.85
2022-11-01T09:30:05.977Z,4.55
2022-11-01T09:32:38.573Z,6.53
2022-11-01T09:35:11.815Z,3.47
2022-11-01T09:37:44.254Z,3.83
2022-11-01T09:40:17.541Z,6.35
2022-11-01T09:42:50.340Z,4.10
2022-11-01T09:45:25.815Z,3.95
2022-11-01T09:47:59.128Z,6.42
2022-11-01T09:50:37.761Z,4.83
2022-11-01T09:53:17.058Z,5.78
2022-11-01T09:56:12.591Z,4.33
2022-11-01T10:02:08.711Z,2.37
2022-11-01T10:05:02.332Z,2.60
2022-11-01T10:07:49.581Z,2.47
2022-11-01T10:10:43.064Z,2.58
2022-11-01T10:13:40.106Z,3.90
2022-11-01T10:16:41.041Z,5.60
2022-11-01T10:19:23.201Z,3.40
2022-11-01T10:22:01.554Z,4.85
2022-11-01T10:25:05.991Z,3.72
2022-11-01T10:27:58.858Z,5.12
2022-11-01T10:30:34.470Z,2.92
2022-11-01T10:33:39.133Z,2.45
2022-11-01T10:36:19.389Z,3.85
2022-11-01T10:41:48.501Z,3.60
2022-11-01T10:44:31.456Z,2.87
2022-11-01T10:47:07.237Z,4.17
2022-11-01T10:52:20.837Z,20.77
2022-11-01T10:54:53.398Z,2.15
2022-11-01T10:57:39.344Z,9.90
2022-11-01T11:00:20.361Z,4.62
2022-11-01T11:03:06.255Z,2.70
2022-11-01T11:05:38.556Z,3.15
2022-11-01T11:08:19.150Z,4.30
2022-11-01T11:10:52.282Z,6.40
2022-11-01T11:13:26.290Z,4.92
2022-11-01T11:16:04.091Z,3.35
2022-11-01T11:18:39.799Z,2.72
2022-11-01T11:21:13.967Z,2.67
2022-11-01T11:26:21.210Z,3.12
2022-11-01T11:28:56.396Z,2.37
2022-11-01T11:31:35.049Z,4.58
2022-11-01T11:34:27.738Z,2.12
2022-11-01T14:50:00.043Z,6.72
2022-11-01T14:52:48.399Z,2.30
2022-11-01T14:55:30.572Z,3.47
2022-11-01T14:58:18.943Z,4.58
2022-11-01T15:00:55.191Z,6.80
2022-11-01T15:03:29.404Z,4.08
2022-11-01T15:06:01.908Z,3.75
2022-11-01T15:08:41.098Z,8.35
2022-11-01T15:11:13.442Z,7.17
2022-11-01T15:13:46.019Z,7.95
2022-11-01T15:16:23.476Z,6.65
2022-11-01T15:19:02.476Z,9.55
2022-11-01T15:21:36.371Z,7.58
2022-11-01T15:24:18.475Z,8.70
2022-11-01T15:26:51.282Z,9.10
2022-11-01T15:29:27.096Z,11.80
2022-11-01T15:32:01.657Z,8.73
2022-11-01T15:34:37.499Z,13.60
2022-11-01T15:37:22.421Z,10.35
2022-11-01T15:42:31.509Z,11.78
2022-11-01T15:45:24.053Z,12.78
2022-11-01T15:47:56.760Z,15.05
2022-11-01T15:50:34.005Z,18.77
2022-11-01T15:53:11.327Z,12.93
2022-11-01T15:55:47.594Z,12.00
2022-11-01T15:58:25.151Z,12.85
2022-11-01T16:01:10.684Z,18.35
2022-11-01T16:03:54.025Z,20.27
2022-11-01T16:06:43.818Z,24.25
2022-11-01T16:09:40.564Z,19.77
2022-11-01T16:12:22.373Z,16.02
2022-11-01T16:15:01.944Z,17.67
2022-11-01T16:17:42.403Z,18.90
2022-11-01T16:20:34.216Z,15.93
2022-11-01T16:25:45.763Z,13.95
2022-11-01T16:28:23.770Z,16.45
2022-11-01T16:30:57.482Z,16.27
2022-11-01T16:33:38.331Z,14.43
2022-11-01T16:36:33.678Z,12.20
2022-11-01T16:42:00.037Z,9.03
2022-11-01T16:44:32.801Z,8.03
2022-11-01T16:47:05.751Z,10.60
2022-11-01T16:49:39.116Z,12.58
2022-11-01T16:52:12.443Z,8.15
2022-11-01T16:54:45.447Z,8.80
2022-11-01T16:57:23.036Z,8.68
2022-11-01T16:59:55.874Z,7.62
2022-11-01T17:02:30.548Z,10.18
2022-11-01T17:05:25.014Z,14.70
2022-11-01T17:07:58.227Z,15.08
2022-11-01T17:10:31.259Z,17.05
2022-11-01T17:13:05.494Z,21.37
2022-11-01T17:15:43.729Z,20.48
2022-11-01T17:18:31.426Z,19.65
2022-11-01T17:21:07.079Z,19.20
2022-11-01T17:23:40.401Z,24.15
2022-11-01T17:26:14.560Z,25.57
2022-11-01T17:28:51.355Z,19.12
2022-11-01T17:31:22.929Z,18.52
2022-11-01T17:33:55.486Z,17.85
2022-11-01T17:36:28.588Z,17.85
2022-11-01T17:39:01.059Z,17.40
2022-11-01T17:41:33.731Z,20.68
2022-11-01T17:44:06.277Z,22.35
2022-11-01T17:46:39.609Z,17.90
2022-11-01T17:49:16.481Z,23.67
2022-11-01T17:51:54.175Z,25.45
2022-11-01T17:54:23.726Z,28.45
2022-11-01T17:56:56.269Z,29.75
2022-11-01T17:59:28.906Z,26.57
2022-11-01T18:02:01.843Z,32.00
2022-11-01T18:04:35.818Z,29.00
2022-11-01T18:07:10.504Z,32.10
2022-11-01T18:09:42.938Z,30.90
2022-11-01T18:12:43.251Z,39.35
2022-11-01T18:15:47.987Z,28.52
2022-11-01T18:19:02.915Z,32.20
2022-11-01T18:22:23.576Z,38.75
2022-11-01T18:25:03.306Z,37.67
2022-11-01T18:27:38.969Z,42.08
2022-11-01T18:30:27.791Z,36.85
2022-11-01T18:33:06.552Z,33.95
2022-11-01T18:35:45.646Z,33.58
2022-11-01T18:38:51.257Z,37.73
2022-11-01T18:41:23.816Z,29.27
2022-11-01T18:43:56.480Z,35.40
2022-11-01T18:46:42.287Z,38.53
2022-11-01T18:49:15.469Z,33.58
2022-11-01T18:51:48.434Z,34.40
2022-11-01T18:54:28.082Z,30.55
2022-11-01T18:57:13.385Z,29.57
2022-11-01T18:59:49.139Z,33.73
2022-11-01T19:02:27.639Z,27.93
2022-11-01T19:05:14.260Z,30.12
2022-11-01T19:10:28.651Z,27.77
2022-11-01T19:13:01.714Z,27.22
2022-11-01T19:15:34.596Z,20.12
2022-11-01T19:18:20.089Z,22.58
2022-11-01T19:20:55.027Z,25.45
2022-11-01T19:23:41.797Z,24.23
2022-11-01T19:26:38.143Z,21.95
2022-11-01T22:04:41.427Z,48.98
2022-11-01T22:07:15.351Z,42.90
2022-11-01T22:09:48.012Z,48.90
2022-11-01T22:12:21.035Z,42.60
2022-11-01T22:14:53.391Z,51.95
2022-11-01T22:17:26.230Z,43.25
2022-11-01T22:19:58.629Z,51.05
2022-11-01T22:25:06.013Z,59.08
2022-11-01T22:27:38.695Z,44.38
2022-11-01T22:30:12.783Z,38.45
2022-11-01T22:32:46.185Z,46.08
2022-11-01T22:35:18.650Z,38.15
2022-11-01T22:37:52.420Z,42.98
2022-11-01T22:40:24.997Z,43.78
2022-11-01T22:42:58.467Z,45.98
2022-11-01T22:45:31.306Z,42.17
2022-11-01T22:48:03.788Z,39.60
2022-11-01T22:50:36.327Z,45.67
2022-11-01T22:56:01.888Z,40.25
2022-11-01T22:58:38.197Z,42.55
2022-11-01T23:01:25.902Z,43.73
2022-11-01T23:03:55.340Z,39.05
2022-11-01T23:06:35.489Z,42.00
2022-11-01T23:09:20.054Z,38.65
2022-11-01T23:12:13.793Z,39.95
2022-11-01T23:14:48.075Z,42.78
2022-11-01T23:17:23.804Z,38.13
2022-11-01T23:20:02.230Z,38.85
2022-11-01T23:22:36.993Z,40.33
2022-11-01T23:25:10.856Z,37.10
2022-11-01T23:27:45.127Z,36.65
2022-11-01T23:30:19.943Z,35.35
2022-11-01T23:32:53.093Z,39.95
2022-11-01T23:35:26.219Z,36.38
2022-11-01T23:37:59.371Z,30.80
2022-11-01T23:40:34.105Z,36.90
2022-11-01T23:43:12.010Z,34.05
2022-11-01T23:45:44.975Z,37.70
2022-11-01T23:48:17.896Z,49.55
2022-11-01T23:50:50.966Z,41.15
2022-11-01T23:53:28.505Z,35.03
2022-11-01T23:56:01.191Z,33.98
2022-11-01T23:58:33.832Z,38.73
